createdAt,value
2023-03-31T00:00:28.017Z,98.75
2023-03-31T00:01:28.009Z,98.85
2023-03-31T00:02:28.156Z,98.85
2023-03-31T00:03:28.083Z,98.75
2023-03-31T00:04:28.003Z,98.65
2023-03-31T00:05:27.968Z,98.54
2023-03-31T00:06:27.951Z,98.44
2023-03-31T00:07:27.943Z,98.44
2023-03-31T00:08:27.933Z,98.44
2023-03-31T00:09:27.908Z,98.54
2023-03-31T00:10:27.904Z,98.96
2023-03-31T00:11:27.887Z,99.10
2023-03-31T00:12:27.895Z,99.10
2023-03-31T00:13:27.867Z,99.31
2023-03-31T00:14:27.866Z,99.51
2023-03-31T00:15:27.866Z,99.62
2023-03-31T00:16:27.929Z,99.62
2023-03-31T00:17:27.841Z,99.51
2023-03-31T00:18:27.822Z,99.26
2023-03-31T00:19:27.801Z,99.16
2023-03-31T00:20:27.807Z,98.75
2023-03-31T00:21:28.558Z,98.33
2023-03-31T00:22:27.830Z,98.24
2023-03-31T00:23:27.767Z,98.29
2023-03-31T00:24:27.766Z,98.08
2023-03-31T00:25:27.733Z,97.92
2023-03-31T00:26:27.743Z,97.88
2023-03-31T00:27:27.809Z,97.67
2023-03-31T00:28:27.740Z,97.47
2023-03-31T00:29:27.692Z,96.75
2023-03-31T00:30:27.683Z,96.55
2023-03-31T00:31:27.783Z,96.55
2023-03-31T00:32:28.143Z,96.75
2023-03-31T00:33:27.651Z,96.75
2023-03-31T00:34:27.655Z,96.85
2023-03-31T00:35:27.624Z,96.44
2023-03-31T00:36:27.625Z,95.89
2023-03-31T00:37:28.429Z,96.30
2023-03-31T00:38:27.602Z,96.50
2023-03-31T00:39:27.596Z,96.34
2023-03-31T00:40:27.583Z,96.14
2023-03-31T00:41:27.570Z,96.19
2023-03-31T00:42:27.557Z,95.98
2023-03-31T00:43:27.537Z,95.68
2023-03-31T00:44:27.535Z,95.37
2023-03-31T00:45:27.556Z,95.27
2023-03-31T00:46:27.718Z,95.27
2023-03-31T00:47:27.508Z,95.52
2023-03-31T00:48:27.496Z,95.47
2023-03-31T00:49:27.468Z,95.62
2023-03-31T00:50:27.475Z,95.17
2023-03-31T00:51:27.456Z,95.27
2023-03-31T00:52:27.449Z,95.57
2023-03-31T00:53:27.437Z,95.57
2023-03-31T00:54:27.430Z,95.37
2023-03-31T00:55:27.423Z,95.06
2023-03-31T00:56:27.406Z,94.96
2023-03-31T00:57:27.518Z,95.06
2023-03-31T00:58:27.385Z,95.06
2023-03-31T00:59:27.385Z,95.27
2023-03-31T01:00:27.389Z,95.06
2023-03-31T01:01:27.366Z,95.06
2023-03-31T01:02:27.382Z,94.96
2023-03-31T01:03:27.370Z,95.57
2023-03-31T01:04:27.322Z,95.57
2023-03-31T01:05:27.316Z,95.68
2023-03-31T01:06:27.305Z,95.68
2023-03-31T01:07:27.282Z,95.78
2023-03-31T01:08:27.284Z,95.68
2023-03-31T01:09:27.261Z,95.98
2023-03-31T01:10:27.262Z,95.78
2023-03-31T01:11:27.249Z,95.68
2023-03-31T01:12:27.250Z,95.47
2023-03-31T01:13:27.230Z,95.68
2023-03-31T01:14:27.213Z,95.57
2023-03-31T01:15:27.215Z,95.47
2023-03-31T01:16:27.225Z,95.17
2023-03-31T01:17:27.402Z,95.37
2023-03-31T01:18:27.279Z,95.47
2023-03-31T01:19:27.153Z,95.37
2023-03-31T01:20:27.158Z,95.47
2023-03-31T01:21:27.145Z,95.78
2023-03-31T01:22:27.150Z,95.89
2023-03-31T01:23:27.931Z,95.68
2023-03-31T01:24:27.118Z,95.37
2023-03-31T01:25:27.089Z,94.55
2023-03-31T01:26:27.096Z,94.96
2023-03-31T01:27:27.085Z,95.06
2023-03-31T01:28:27.091Z,95.37
2023-03-31T01:29:27.048Z,95.17
2023-03-31T01:30:27.046Z,94.85
2023-03-31T01:31:27.159Z,94.76
2023-03-31T01:32:27.049Z,95.06
2023-03-31T01:33:27.019Z,95.06
2023-03-31T01:34:27.010Z,95.27
2023-03-31T01:35:27.028Z,95.57
2023-03-31T01:36:26.991Z,95.37
2023-03-31T01:37:26.965Z,95.42
2023-03-31T01:38:26.973Z,95.47
2023-03-31T01:39:26.950Z,95.83
2023-03-31T01:40:26.942Z,95.93
2023-03-31T01:41:26.924Z,95.93
2023-03-31T01:42:26.938Z,96.03
2023-03-31T01:43:26.900Z,95.93
2023-03-31T01:44:26.902Z,96.14
2023-03-31T01:45:26.925Z,96.34
2023-03-31T01:46:26.954Z,96.34
2023-03-31T01:47:26.874Z,96.23
2023-03-31T01:48:26.875Z,97.16
2023-03-31T01:49:27.662Z,96.85
2023-03-31T01:50:26.851Z,96.95
2023-03-31T01:51:26.827Z,96.95
2023-03-31T01:52:26.852Z,96.95
2023-03-31T01:53:26.798Z,96.85
2023-03-31T01:54:26.809Z,97.06
2023-03-31T01:55:26.773Z,96.85
2023-03-31T01:56:27.124Z,96.44
2023-03-31T01:57:26.802Z,96.65
2023-03-31T01:58:26.750Z,96.23
2023-03-31T01:59:26.759Z,96.14
2023-03-31T02:00:26.769Z,96.23
2023-03-31T02:01:26.786Z,96.44
2023-03-31T02:02:26.800Z,96.65
2023-03-31T02:03:26.830Z,96.50
2023-03-31T02:04:26.692Z,96.09
2023-03-31T02:05:26.690Z,96.03
2023-03-31T02:06:26.671Z,95.93
2023-03-31T02:07:26.650Z,95.17
2023-03-31T02:08:26.648Z,94.85
2023-03-31T02:09:26.631Z,94.45
2023-03-31T02:10:26.637Z,94.14
2023-03-31T02:11:26.632Z,93.79
2023-03-31T02:12:26.604Z,93.38
2023-03-31T02:13:26.618Z,92.86
2023-03-31T02:14:26.578Z,92.97
2023-03-31T02:15:26.557Z,93.48
2023-03-31T02:16:26.655Z,93.79
2023-03-31T02:17:26.570Z,93.59
2023-03-31T02:18:26.556Z,93.17
2023-03-31T02:19:26.542Z,92.76
2023-03-31T02:20:26.538Z,93.68
2023-03-31T02:21:26.652Z,93.89
2023-03-31T02:22:26.533Z,93.68
2023-03-31T02:23:26.523Z,93.68
2023-03-31T02:24:26.471Z,93.79
2023-03-31T02:25:26.483Z,94.45
2023-03-31T02:26:26.464Z,94.45
2023-03-31T02:27:26.447Z,94.45
2023-03-31T02:28:26.437Z,94.34
2023-03-31T02:29:26.426Z,94.14
2023-03-31T02:30:26.425Z,94.65
2023-03-31T02:31:26.431Z,95.37
2023-03-31T02:32:26.407Z,95.89
2023-03-31T02:33:26.370Z,95.47
2023-03-31T02:34:26.386Z,95.17
2023-03-31T02:35:26.373Z,95.17
2023-03-31T02:36:26.372Z,95.47
2023-03-31T02:37:26.338Z,95.47
2023-03-31T02:38:26.328Z,95.57
2023-03-31T02:39:26.311Z,95.37
2023-03-31T02:40:26.302Z,95.47
2023-03-31T02:41:26.289Z,95.47
2023-03-31T02:42:26.292Z,94.85
2023-03-31T02:43:26.297Z,94.96
2023-03-31T02:44:26.261Z,94.85
2023-03-31T02:45:26.270Z,95.27
2023-03-31T02:46:26.261Z,95.17
2023-03-31T02:47:26.265Z,94.85
2023-03-31T02:48:26.228Z,94.14
2023-03-31T02:49:26.204Z,93.93
2023-03-31T02:50:26.196Z,94.10
2023-03-31T02:51:26.183Z,94.34
2023-03-31T02:52:26.333Z,94.24
2023-03-31T02:53:26.167Z,94.34
2023-03-31T02:54:26.157Z,94.65
2023-03-31T02:55:26.149Z,95.06
2023-03-31T02:56:26.148Z,94.85
2023-03-31T02:57:26.365Z,95.37
2023-03-31T02:58:26.128Z,95.47
2023-03-31T02:59:26.102Z,95.68
2023-03-31T03:00:26.097Z,95.93
2023-03-31T03:01:26.158Z,96.03
2023-03-31T03:02:26.186Z,96.23
2023-03-31T03:03:26.124Z,96.34
2023-03-31T03:04:26.057Z,96.44
2023-03-31T03:05:26.072Z,96.44
2023-03-31T03:06:26.035Z,95.72
2023-03-31T03:07:26.020Z,95.31
2023-03-31T03:08:26.015Z,94.85
2023-03-31T03:09:25.992Z,94.85
2023-03-31T03:10:26.012Z,94.96
2023-03-31T03:11:25.985Z,95.17
2023-03-31T03:12:25.971Z,95.68
2023-03-31T03:13:25.948Z,95.62
2023-03-31T03:14:25.960Z,95.72
2023-03-31T03:15:25.939Z,96.03
2023-03-31T03:16:26.781Z,96.44
2023-03-31T03:17:25.952Z,96.23
2023-03-31T03:18:25.904Z,96.14
2023-03-31T03:19:25.895Z,96.55
2023-03-31T03:20:25.902Z,96.44
2023-03-31T03:21:25.902Z,95.83
2023-03-31T03:22:25.863Z,95.93
2023-03-31T03:23:25.857Z,96.23
2023-03-31T03:24:25.854Z,96.34
2023-03-31T03:25:25.842Z,96.03
2023-03-31T03:26:25.833Z,96.65
2023-03-31T03:27:25.806Z,97.27
2023-03-31T03:28:25.810Z,97.06
2023-03-31T03:29:25.779Z,96.65
2023-03-31T03:30:25.799Z,96.44
2023-03-31T03:31:26.181Z,95.93
2023-03-31T03:32:25.766Z,95.78
2023-03-31T03:33:26.021Z,94.65
2023-03-31T03:34:25.751Z,94.34
2023-03-31T03:35:25.719Z,94.45
2023-03-31T03:36:25.804Z,94.45
2023-03-31T03:37:25.700Z,94.55
2023-03-31T03:38:25.706Z,94.34
2023-03-31T03:39:25.720Z,93.93
2023-03-31T03:40:25.673Z,93.52
2023-03-31T03:41:25.699Z,93.01
2023-03-31T03:42:25.668Z,92.91
2023-03-31T03:43:25.631Z,92.91
2023-03-31T03:44:25.669Z,93.21
2023-03-31T03:45:25.611Z,92.80
2023-03-31T03:46:25.654Z,91.53
2023-03-31T03:47:25.629Z,91.84
2023-03-31T03:48:25.606Z,91.84
2023-03-31T03:49:25.596Z,92.04
2023-03-31T03:50:25.578Z,92.04
2023-03-31T03:51:25.550Z,91.12
2023-03-31T03:52:25.548Z,91.02
2023-03-31T03:53:25.681Z,91.22
2023-03-31T03:54:25.530Z,91.22
2023-03-31T03:55:25.512Z,90.50
2023-03-31T03:56:25.499Z,90.81
2023-03-31T03:57:25.580Z,90.20
2023-03-31T03:58:25.484Z,90.61
2023-03-31T03:59:25.469Z,91.02
2023-03-31T04:00:25.462Z,90.50
2023-03-31T04:01:26.251Z,90.81
2023-03-31T04:02:28.034Z,90.91
2023-03-31T04:03:25.459Z,90.20
2023-03-31T04:04:25.411Z,90.30
2023-03-31T04:05:25.476Z,90.81
2023-03-31T04:06:25.421Z,90.91
2023-03-31T04:07:25.667Z,90.71
2023-03-31T04:08:25.387Z,90.71
2023-03-31T04:09:26.185Z,90.09
2023-03-31T04:10:25.500Z,90.61
2023-03-31T04:11:25.336Z,90.30
2023-03-31T04:12:25.331Z,90.30
2023-03-31T04:13:25.349Z,90.50
2023-03-31T04:14:25.298Z,90.40
2023-03-31T04:15:25.324Z,89.78
2023-03-31T04:16:25.380Z,88.92
2023-03-31T04:17:25.323Z,89.69
2023-03-31T04:18:25.261Z,89.69
2023-03-31T04:19:25.266Z,89.13
2023-03-31T04:20:25.245Z,89.23
2023-03-31T04:21:26.058Z,88.10
2023-03-31T04:22:25.223Z,87.59
2023-03-31T04:23:25.213Z,87.18
2023-03-31T04:24:25.196Z,86.77
2023-03-31T04:25:25.202Z,86.77
2023-03-31T04:26:25.185Z,87.18
2023-03-31T04:27:25.182Z,86.22
2023-03-31T04:28:25.148Z,86.73
2023-03-31T04:29:25.147Z,87.55
2023-03-31T04:30:25.135Z,87.55
2023-03-31T04:31:25.507Z,87.79
2023-03-31T04:32:25.140Z,87.28
2023-03-31T04:33:25.112Z,87.08
2023-03-31T04:34:25.086Z,87.90
2023-03-31T04:35:25.166Z,87.59
2023-03-31T04:36:25.066Z,87.90
2023-03-31T04:37:25.069Z,88.21
2023-03-31T04:38:25.043Z,87.59
2023-03-31T04:39:25.039Z,88.21
2023-03-31T04:40:25.018Z,88.45
2023-03-31T04:41:25.073Z,86.36
2023-03-31T04:42:24.996Z,86.87
2023-03-31T04:43:24.999Z,85.74
2023-03-31T04:44:24.975Z,85.50
2023-03-31T04:45:25.030Z,84.58
2023-03-31T04:46:25.027Z,84.99
2023-03-31T04:47:24.997Z,84.99
2023-03-31T04:48:24.932Z,85.39
2023-03-31T04:49:24.944Z,84.99
2023-03-31T04:50:24.930Z,85.71
2023-03-31T04:51:24.926Z,85.91
2023-03-31T04:52:24.901Z,85.80
2023-03-31T04:53:24.919Z,86.11
2023-03-31T04:54:24.871Z,85.71
2023-03-31T04:55:24.872Z,85.30
2023-03-31T04:56:24.848Z,85.33
2023-03-31T04:57:24.923Z,85.09
2023-03-31T04:58:24.830Z,84.58
2023-03-31T04:59:24.828Z,84.27
2023-03-31T05:00:24.801Z,84.53
2023-03-31T05:01:24.857Z,84.95
2023-03-31T05:02:25.595Z,85.80
2023-03-31T05:03:24.875Z,85.30
2023-03-31T05:04:24.766Z,85.60
2023-03-31T05:05:24.777Z,86.11
2023-03-31T05:06:24.755Z,86.01
2023-03-31T05:07:24.750Z,86.11
2023-03-31T05:08:24.740Z,86.57
2023-03-31T05:09:24.740Z,87.08
2023-03-31T05:10:24.714Z,87.79
2023-03-31T05:11:24.708Z,87.70
2023-03-31T05:12:24.696Z,88.41
2023-03-31T05:13:24.691Z,86.77
2023-03-31T05:14:24.675Z,86.87
2023-03-31T05:15:24.714Z,88.00
2023-03-31T05:16:24.700Z,87.49
2023-03-31T05:17:24.715Z,86.66
2023-03-31T05:18:24.634Z,86.77
2023-03-31T05:19:24.631Z,86.57
2023-03-31T05:20:24.610Z,86.87
2023-03-31T05:21:24.611Z,87.08
2023-03-31T05:22:24.588Z,87.28
2023-03-31T05:23:24.593Z,87.38
2023-03-31T05:24:24.573Z,87.84
2023-03-31T05:25:24.593Z,88.00
2023-03-31T05:26:24.547Z,87.53
2023-03-31T05:27:24.546Z,88.04
2023-03-31T05:28:24.523Z,87.53
2023-03-31T05:29:24.539Z,86.87
2023-03-31T05:30:24.502Z,87.18
2023-03-31T05:31:24.536Z,87.28
2023-03-31T05:32:24.586Z,86.15
2023-03-31T05:33:24.489Z,86.87
2023-03-31T05:34:24.470Z,87.70
2023-03-31T05:35:25.498Z,87.59
2023-03-31T05:36:24.496Z,88.31
2023-03-31T05:37:24.436Z,88.62
2023-03-31T05:38:24.411Z,88.62
2023-03-31T05:39:24.415Z,89.23
2023-03-31T05:40:24.465Z,89.23
2023-03-31T05:41:24.433Z,89.84
2023-03-31T05:42:24.379Z,90.56
2023-03-31T05:43:24.382Z,89.43
2023-03-31T05:44:25.164Z,89.54
2023-03-31T05:45:24.369Z,89.75
2023-03-31T05:46:24.449Z,90.67
2023-03-31T05:47:24.360Z,90.40
2023-03-31T05:48:24.317Z,89.48
2023-03-31T05:49:24.307Z,90.09
2023-03-31T05:50:24.280Z,90.20
2023-03-31T05:51:24.301Z,90.20
2023-03-31T05:52:24.286Z,91.33
2023-03-31T05:53:24.285Z,91.02
2023-03-31T05:54:25.067Z,90.91
2023-03-31T05:55:24.260Z,91.02
2023-03-31T05:56:24.250Z,91.22
2023-03-31T05:57:25.061Z,91.02
2023-03-31T05:58:24.225Z,91.42
2023-03-31T05:59:24.211Z,91.84
2023-03-31T06:00:24.191Z,92.14
2023-03-31T06:01:25.073Z,90.71
2023-03-31T06:02:24.204Z,89.37
2023-03-31T06:03:24.266Z,89.69
2023-03-31T06:04:24.184Z,89.95
2023-03-31T06:05:24.156Z,89.54
2023-03-31T06:06:24.141Z,89.95
2023-03-31T06:07:24.139Z,90.67
2023-03-31T06:08:24.119Z,91.59
2023-03-31T06:09:24.111Z,91.90
2023-03-31T06:10:24.092Z,92.41
2023-03-31T06:11:24.089Z,92.00
2023-03-31T06:12:24.063Z,91.59
2023-03-31T06:13:24.060Z,92.41
2023-03-31T06:14:24.037Z,93.44
2023-03-31T06:15:24.310Z,93.64
2023-03-31T06:16:24.046Z,93.33
2023-03-31T06:17:24.031Z,92.00
2023-03-31T06:18:24.005Z,92.10
2023-03-31T06:19:24.000Z,91.90
2023-03-31T06:20:28.139Z,92.21
2023-03-31T06:21:23.978Z,92.57
2023-03-31T06:22:23.949Z,92.47
2023-03-31T06:23:23.954Z,91.03
2023-03-31T06:24:23.938Z,91.03
2023-03-31T06:25:23.960Z,91.14
2023-03-31T06:26:25.372Z,91.24
2023-03-31T06:27:23.913Z,91.75
2023-03-31T06:28:23.892Z,92.57
2023-03-31T06:29:23.920Z,92.06
2023-03-31T06:30:23.884Z,92.06
2023-03-31T06:31:23.932Z,92.16
2023-03-31T06:32:23.866Z,90.62
2023-03-31T06:33:23.848Z,91.20
2023-03-31T06:34:23.849Z,91.40
2023-03-31T06:35:23.831Z,90.07
2023-03-31T06:36:23.823Z,88.84
2023-03-31T06:37:23.822Z,89.72
2023-03-31T06:38:23.785Z,90.54
2023-03-31T06:39:25.802Z,90.84
2023-03-31T06:40:23.773Z,91.36
2023-03-31T06:41:23.755Z,92.14
2023-03-31T06:42:23.902Z,91.83
2023-03-31T06:43:23.747Z,91.22
2023-03-31T06:44:23.728Z,88.24
2023-03-31T06:45:23.727Z,88.24
2023-03-31T06:46:23.790Z,89.27
2023-03-31T06:47:23.718Z,89.27
2023-03-31T06:48:23.690Z,89.37
2023-03-31T06:49:23.678Z,89.68
2023-03-31T06:50:23.672Z,89.03
2023-03-31T06:51:23.683Z,89.12
2023-03-31T06:52:23.651Z,89.43
2023-03-31T06:53:23.639Z,88.10
2023-03-31T06:54:23.633Z,87.38
2023-03-31T06:55:23.621Z,87.70
2023-03-31T06:56:23.590Z,87.49
2023-03-31T06:57:23.834Z,87.04
2023-03-31T06:58:24.416Z,88.57
2023-03-31T06:59:23.568Z,88.98
2023-03-31T07:00:23.563Z,89.50
2023-03-31T07:01:23.778Z,89.80
2023-03-31T07:02:24.350Z,88.98
2023-03-31T07:03:23.584Z,84.79
2023-03-31T07:04:23.515Z,83.05
2023-03-31T07:05:23.506Z,84.95
2023-03-31T07:06:23.493Z,84.44
2023-03-31T07:07:23.492Z,84.85
2023-03-31T07:08:23.473Z,83.93
2023-03-31T07:09:23.475Z,83.83
2023-03-31T07:10:23.449Z,82.60
2023-03-31T07:11:23.457Z,82.20
2023-03-31T07:12:23.420Z,81.58
2023-03-31T07:13:23.435Z,78.27
2023-03-31T07:14:23.392Z,79.05
2023-03-31T07:15:23.411Z,79.66
2023-03-31T07:16:23.426Z,80.28
2023-03-31T07:17:23.380Z,80.48
2023-03-31T07:18:23.362Z,80.24
2023-03-31T07:19:23.381Z,81.32
2023-03-31T07:20:23.489Z,81.53
2023-03-31T07:21:23.337Z,80.85
2023-03-31T07:22:23.322Z,80.30
2023-03-31T07:23:23.320Z,81.32
2023-03-31T07:24:23.317Z,81.12
2023-03-31T07:25:24.097Z,81.63
2023-03-31T07:26:23.294Z,83.06
2023-03-31T07:27:26.060Z,82.14
2023-03-31T07:28:23.262Z,82.35
2023-03-31T07:29:23.265Z,82.65
2023-03-31T07:30:23.253Z,81.53
2023-03-31T07:31:23.274Z,81.29
2023-03-31T07:32:23.257Z,80.68
2023-03-31T07:33:23.234Z,81.04
2023-03-31T07:34:24.009Z,79.52
2023-03-31T07:35:23.193Z,80.02
2023-03-31T07:36:23.207Z,80.94
2023-03-31T07:37:23.176Z,81.39
2023-03-31T07:38:23.570Z,81.39
2023-03-31T07:39:23.145Z,81.90
2023-03-31T07:40:23.136Z,81.70
2023-03-31T07:41:23.129Z,82.92
2023-03-31T07:42:23.110Z,83.73
2023-03-31T07:43:23.104Z,83.43
2023-03-31T07:44:23.091Z,81.09
2023-03-31T07:45:23.079Z,81.04
2023-03-31T07:46:23.102Z,80.54
2023-03-31T07:47:23.051Z,80.74
2023-03-31T07:48:23.131Z,80.64
2023-03-31T07:49:23.057Z,81.04
2023-03-31T07:50:23.016Z,81.35
2023-03-31T07:51:23.027Z,81.86
2023-03-31T07:52:23.013Z,82.47
2023-03-31T07:53:23.000Z,82.68
2023-03-31T07:54:22.976Z,82.17
2023-03-31T07:55:22.979Z,81.96
2023-03-31T07:56:22.955Z,82.57
2023-03-31T07:57:22.983Z,80.54
2023-03-31T07:58:22.933Z,80.74
2023-03-31T07:59:22.933Z,81.86
2023-03-31T08:00:22.915Z,81.56
2023-03-31T08:01:22.911Z,80.74
2023-03-31T08:02:23.005Z,81.04
2023-03-31T08:03:22.886Z,80.43
2023-03-31T08:04:22.940Z,80.64
2023-03-31T08:05:22.887Z,81.04
2023-03-31T08:06:23.167Z,80.23
2023-03-31T08:07:22.851Z,79.93
2023-03-31T08:08:22.832Z,80.43
2023-03-31T08:09:22.812Z,79.52
2023-03-31T08:10:22.812Z,79.62
2023-03-31T08:11:23.607Z,79.52
2023-03-31T08:12:22.774Z,78.87
2023-03-31T08:13:22.779Z,79.68
2023-03-31T08:14:34.066Z,80.09
2023-03-31T08:15:23.800Z,78.97
2023-03-31T08:16:22.858Z,77.85
2023-03-31T08:17:22.723Z,78.87
2023-03-31T08:18:22.719Z,78.73
2023-03-31T08:19:22.755Z,78.73
2023-03-31T08:20:22.775Z,78.32
2023-03-31T08:21:24.598Z,77.61
2023-03-31T08:22:22.662Z,77.81
2023-03-31T08:23:22.660Z,79.14
2023-03-31T08:24:22.698Z,79.34
2023-03-31T08:25:22.645Z,77.91
2023-03-31T08:26:22.639Z,77.10
2023-03-31T08:27:22.623Z,78.02
2023-03-31T08:28:22.611Z,77.81
2023-03-31T08:29:22.592Z,77.51
2023-03-31T08:30:22.644Z,77.71
2023-03-31T08:31:22.637Z,77.00
2023-03-31T08:32:22.576Z,76.15
2023-03-31T08:33:22.534Z,75.30
2023-03-31T08:34:22.543Z,74.79
2023-03-31T08:35:22.539Z,75.37
2023-03-31T08:36:22.571Z,74.92
2023-03-31T08:37:22.802Z,74.92
2023-03-31T08:38:22.494Z,73.70
2023-03-31T08:39:22.485Z,73.30
2023-03-31T08:40:22.496Z,73.60
2023-03-31T08:41:22.466Z,74.01
2023-03-31T08:42:23.274Z,72.69
2023-03-31T08:43:22.428Z,73.80
2023-03-31T08:44:22.428Z,73.50
2023-03-31T08:45:22.433Z,73.50
2023-03-31T08:46:22.463Z,74.01
2023-03-31T08:47:22.481Z,73.60
2023-03-31T08:48:22.389Z,73.80
2023-03-31T08:49:22.377Z,73.91
2023-03-31T08:50:22.378Z,73.70
2023-03-31T08:51:22.336Z,75.94
2023-03-31T08:52:22.602Z,77.60
2023-03-31T08:53:22.331Z,78.01
2023-03-31T08:54:22.337Z,77.81
2023-03-31T08:55:22.299Z,77.40
2023-03-31T08:56:22.305Z,78.11
2023-03-31T08:57:22.355Z,78.52
2023-03-31T08:58:22.272Z,79.13
2023-03-31T08:59:22.261Z,79.77
2023-03-31T09:00:22.316Z,79.68
2023-03-31T09:01:23.078Z,81.34
2023-03-31T09:02:22.659Z,81.95
2023-03-31T09:03:22.477Z,82.15
2023-03-31T09:04:22.619Z,82.97
2023-03-31T09:05:23.016Z,80.73
2023-03-31T09:06:23.063Z,81.65
2023-03-31T09:07:22.168Z,81.85
2023-03-31T09:08:22.178Z,80.93
2023-03-31T09:09:23.835Z,80.99
2023-03-31T09:10:22.264Z,81.60
2023-03-31T09:11:22.128Z,80.69
2023-03-31T09:12:22.129Z,81.40
2023-03-31T09:13:22.935Z,82.05
2023-03-31T09:14:22.184Z,82.05
2023-03-31T09:15:22.092Z,80.22
2023-03-31T09:16:22.133Z,80.63
2023-03-31T09:17:22.088Z,82.05
2023-03-31T09:18:24.229Z,80.63
2023-03-31T09:19:22.043Z,82.90
2023-03-31T09:20:22.046Z,82.90
2023-03-31T09:21:22.058Z,82.09
2023-03-31T09:22:22.018Z,81.88
2023-03-31T09:23:22.028Z,80.16
2023-03-31T09:24:22.863Z,78.93
2023-03-31T09:25:21.992Z,78.32
2023-03-31T09:26:21.978Z,77.91
2023-03-31T09:27:21.958Z,75.98
2023-03-31T09:28:21.962Z,73.60
2023-03-31T09:29:21.956Z,75.95
2023-03-31T09:30:21.961Z,74.62
2023-03-31T09:31:21.953Z,74.15
2023-03-31T09:32:21.974Z,76.70
2023-03-31T09:33:22.013Z,78.30
2023-03-31T09:34:21.894Z,78.13
2023-03-31T09:35:22.091Z,78.38
2023-03-31T09:36:21.884Z,76.74
2023-03-31T09:37:22.022Z,78.78
2023-03-31T09:38:21.941Z,78.27
2023-03-31T09:39:21.823Z,78.78
2023-03-31T09:40:21.855Z,76.19
2023-03-31T09:41:21.810Z,79.02
2023-03-31T09:42:21.806Z,78.09
2023-03-31T09:43:21.796Z,79.69
2023-03-31T09:44:21.785Z,77.55
2023-03-31T09:45:21.774Z,76.93
2023-03-31T09:46:22.126Z,76.02
2023-03-31T09:47:21.747Z,76.32
2023-03-31T09:48:21.778Z,77.75
2023-03-31T09:49:21.747Z,76.53
2023-03-31T09:50:25.460Z,74.86
2023-03-31T09:51:21.700Z,75.88
2023-03-31T09:52:21.702Z,77.11
2023-03-31T09:53:21.703Z,75.41
2023-03-31T09:54:21.671Z,74.90
2023-03-31T09:55:36.077Z,76.73
2023-03-31T09:56:22.678Z,76.43
2023-03-31T09:57:21.666Z,78.27
2023-03-31T09:58:21.648Z,76.02
2023-03-31T09:59:21.631Z,75.98
2023-03-31T10:00:21.604Z,77.21
2023-03-31T10:01:21.610Z,74.86
2023-03-31T10:02:21.591Z,75.57
2023-03-31T10:03:21.565Z,74.28
2023-03-31T10:04:21.600Z,72.96
2023-03-31T10:05:21.575Z,70.86
2023-03-31T10:06:21.553Z,70.62
2023-03-31T10:07:21.544Z,71.47
2023-03-31T10:08:21.517Z,69.03
2023-03-31T10:09:21.518Z,69.74
2023-03-31T10:10:21.508Z,69.17
2023-03-31T10:11:21.495Z,68.28
2023-03-31T10:12:21.486Z,68.08
2023-03-31T10:13:21.486Z,67.77
2023-03-31T10:14:21.475Z,67.16
2023-03-31T10:15:21.439Z,68.08
2023-03-31T10:16:21.484Z,67.06
2023-03-31T10:17:21.583Z,67.24
2023-03-31T10:18:21.458Z,68.05
2023-03-31T10:19:21.407Z,67.64
2023-03-31T10:20:21.394Z,67.81
2023-03-31T10:21:21.378Z,67.10
2023-03-31T10:22:21.397Z,66.90
2023-03-31T10:23:21.362Z,66.80
2023-03-31T10:24:21.359Z,66.69
2023-03-31T10:25:21.567Z,66.29
2023-03-31T10:26:21.445Z,66.77
2023-03-31T10:27:21.312Z,66.56
2023-03-31T10:28:21.572Z,66.19
2023-03-31T10:29:21.297Z,66.80
2023-03-31T10:30:21.294Z,67.78
2023-03-31T10:31:21.369Z,69.10
2023-03-31T10:32:21.255Z,66.66
2023-03-31T10:33:23.014Z,66.05
2023-03-31T10:34:21.271Z,67.24
2023-03-31T10:35:21.226Z,66.91
2023-03-31T10:36:21.270Z,66.97
2023-03-31T10:37:21.214Z,65.76
2023-03-31T10:38:21.248Z,62.41
2023-03-31T10:39:21.185Z,64.24
2023-03-31T10:40:21.197Z,64.01
2023-03-31T10:41:21.240Z,62.76
2023-03-31T10:42:21.169Z,61.90
2023-03-31T10:43:21.134Z,61.00
2023-03-31T10:44:21.126Z,61.65
2023-03-31T10:45:33.650Z,59.22
2023-03-31T10:46:22.125Z,58.85
2023-03-31T10:47:21.084Z,60.66
2023-03-31T10:48:21.091Z,61.57
2023-03-31T10:49:21.088Z,62.88
2023-03-31T10:50:21.065Z,61.35
2023-03-31T10:51:21.059Z,61.82
2023-03-31T10:52:21.044Z,59.22
2023-03-31T10:53:21.021Z,61.37
2023-03-31T10:54:21.033Z,61.27
2023-03-31T10:55:21.003Z,60.49
2023-03-31T10:56:20.999Z,56.27
2023-03-31T10:57:21.032Z,57.72
2023-03-31T10:58:20.981Z,57.44
2023-03-31T10:59:20.954Z,58.76
2023-03-31T11:00:20.962Z,56.86
2023-03-31T11:01:20.942Z,58.36
2023-03-31T11:02:20.970Z,54.11
2023-03-31T11:03:21.083Z,53.40
2023-03-31T11:04:20.912Z,53.30
2023-03-31T11:05:20.887Z,54.28
2023-03-31T11:06:20.888Z,50.77
2023-03-31T11:07:20.875Z,51.35
2023-03-31T11:08:20.924Z,51.15
2023-03-31T11:09:20.891Z,50.06
2023-03-31T11:10:20.847Z,49.45
2023-03-31T11:11:20.831Z,48.85
2023-03-31T11:12:20.826Z,48.74
2023-03-31T11:13:20.810Z,46.76
2023-03-31T11:14:20.810Z,46.51
2023-03-31T11:15:20.796Z,44.87
2023-03-31T11:16:20.843Z,44.53
2023-03-31T11:17:20.812Z,44.43
2023-03-31T11:18:20.766Z,44.29
2023-03-31T11:19:20.752Z,43.66
2023-03-31T11:20:20.740Z,42.24
2023-03-31T11:21:20.720Z,42.64
2023-03-31T11:22:20.709Z,42.19
2023-03-31T11:23:20.699Z,41.97
2023-03-31T11:24:20.694Z,40.77
2023-03-31T11:25:20.720Z,40.87
2023-03-31T11:26:20.683Z,42.18
2023-03-31T11:27:20.651Z,41.73
2023-03-31T11:28:20.654Z,43.38
2023-03-31T11:29:20.642Z,44.89
2023-03-31T11:30:20.628Z,44.93
2023-03-31T11:31:20.650Z,46.14
2023-03-31T11:32:20.616Z,44.75
2023-03-31T11:33:20.606Z,45.66
2023-03-31T11:34:20.593Z,46.06
2023-03-31T11:35:20.581Z,45.14
2023-03-31T11:36:20.692Z,46.57
2023-03-31T11:37:20.556Z,47.66
2023-03-31T11:38:21.873Z,46.26
2023-03-31T11:39:20.569Z,46.29
2023-03-31T11:40:20.528Z,46.19
2023-03-31T11:41:20.521Z,46.89
2023-03-31T11:42:20.503Z,46.09
2023-03-31T11:43:20.499Z,45.26
2023-03-31T11:44:20.503Z,45.64
2023-03-31T11:45:20.462Z,45.97
2023-03-31T11:46:20.544Z,47.07
2023-03-31T11:47:20.512Z,45.62
2023-03-31T11:48:20.493Z,44.85
2023-03-31T11:49:20.417Z,43.78
2023-03-31T11:50:20.434Z,42.25
2023-03-31T11:51:20.405Z,42.88
2023-03-31T11:52:21.209Z,41.51
2023-03-31T11:53:20.395Z,40.84
2023-03-31T11:54:20.376Z,42.33
2023-03-31T11:55:20.374Z,41.21
2023-03-31T11:56:20.363Z,40.81
2023-03-31T11:57:20.347Z,41.19
2023-03-31T11:58:20.335Z,43.16
2023-03-31T11:59:20.317Z,43.38
2023-03-31T12:00:20.319Z,44.64
2023-03-31T12:01:20.288Z,45.37
2023-03-31T12:02:20.284Z,46.07
2023-03-31T12:03:20.329Z,46.40
2023-03-31T12:04:20.274Z,47.71
2023-03-31T12:05:20.438Z,47.74
2023-03-31T12:06:20.339Z,47.47
2023-03-31T12:07:20.237Z,48.69
2023-03-31T12:08:20.234Z,48.28
2023-03-31T12:09:20.238Z,48.99
2023-03-31T12:10:21.024Z,47.90
2023-03-31T12:11:20.176Z,49.52
2023-03-31T12:12:20.179Z,49.42
2023-03-31T12:13:20.153Z,47.45
2023-03-31T12:14:20.157Z,47.77
2023-03-31T12:15:20.148Z,44.93
2023-03-31T12:16:20.182Z,44.04
2023-03-31T12:17:20.115Z,42.19
2023-03-31T12:18:20.108Z,42.24
2023-03-31T12:19:20.906Z,44.31
2023-03-31T12:20:20.369Z,45.06
2023-03-31T12:21:20.082Z,46.71
2023-03-31T12:22:20.075Z,47.26
2023-03-31T12:23:20.053Z,47.31
2023-03-31T12:24:20.581Z,47.13
2023-03-31T12:25:20.039Z,47.15
2023-03-31T12:26:20.048Z,48.41
2023-03-31T12:27:20.041Z,48.61
2023-03-31T12:28:20.029Z,50.15
2023-03-31T12:29:20.022Z,49.95
2023-03-31T12:30:20.007Z,51.37
2023-03-31T12:31:20.021Z,53.42
2023-03-31T12:32:20.792Z,57.20
2023-03-31T12:33:19.960Z,59.89
2023-03-31T12:34:19.964Z,59.95
2023-03-31T12:35:19.929Z,62.21
2023-03-31T12:36:19.996Z,61.74
2023-03-31T12:37:20.720Z,62.45
2023-03-31T12:38:19.907Z,61.83
2023-03-31T12:39:19.881Z,61.33
2023-03-31T12:40:19.876Z,61.74
2023-03-31T12:41:19.872Z,64.92
2023-03-31T12:42:20.679Z,72.48
2023-03-31T12:43:19.872Z,73.81
2023-03-31T12:44:19.825Z,77.14
2023-03-31T12:45:19.827Z,80.24
2023-03-31T12:46:20.176Z,81.40
2023-03-31T12:47:19.845Z,82.97
2023-03-31T12:48:19.785Z,82.20
2023-03-31T12:49:19.780Z,84.75
2023-03-31T12:50:19.756Z,85.94
2023-03-31T12:51:20.296Z,84.41
2023-03-31T12:52:19.759Z,84.26